Time;durP1;ratioP1;P1;durP2;ratioP2;P2;SDS_P1;SDS_P2;PMS_P1;PMS_P2;Temp;Humidity;BMP_temperature;BMP_pressure;BME280_temperature;BME280_humidity;BME280_pressure;Samples;Min_cycle;Max_cycle;Signal;HPM_P1;HPM_P2
2022/09/01 00:01:49;;;;;;;0.57;0.57;;;;;;;;;;5036628;28;20193;-84
2022/09/01 00:04:19;;;;;;;1.30;1.20;;;;;;;;;;5036243;28;20194;-85
2022/09/01 00:06:47;;;;;;;1.67;0.80;;;;;;;;;;5036524;28;20657;-84
2022/09/01 00:09:18;;;;;;;1.40;1.00;;;;;;;;;;5036032;28;20213;-85
2022/09/01 00:11:52;;;;;;;0.80;0.80;;;;;;;;;;5036061;28;20218;-85
2022/09/01 00:14:21;;;;;;;0.80;0.80;;;;;;;;;;5036769;28;20186;-83
2022/09/01 00:16:48;;;;;;;0.73;0.70;;;;;;;;;;5036402;28;20296;-83
2022/09/01 00:19:16;;;;;;;0.70;0.70;;;;;;;;;;5035885;28;20285;-85
2022/09/01 00:21:45;;;;;;;0.70;0.70;;;;;;;;;;5035943;28;20233;-85
2022/09/01 00:24:15;;;;;;;1.58;0.70;;;;;;;;;;5036118;28;20333;-84
2022/09/01 00:26:43;;;;;;;0.80;0.80;;;;;;;;;;5036224;28;20281;-84
2022/09/01 00:29:12;;;;;;;0.75;0.75;;;;;;;;;;5035619;28;20297;-84
2022/09/01 00:31:41;;;;;;;0.90;0.90;;;;;;;;;;5035715;28;20289;-83
2022/09/01 00:34:09;;;;;;;0.90;0.90;;;;;;;;;;5035774;28;20293;-86
2022/09/01 00:36:36;;;;;;;1.00;1.00;;;;;;;;;;5034967;28;20309;-86
2022/09/01 00:39:06;;;;;;;0.85;0.77;;;;;;;;;;5035152;28;20297;-85
2022/09/01 00:41:38;;;;;;;0.60;0.60;;;;;;;;;;5035689;28;20206;-86
2022/09/01 00:44:10;;;;;;;0.98;0.98;;;;;;;;;;5035130;28;20754;-84
2022/09/01 00:46:48;;;;;;;0.90;0.90;;;;;;;;;;5035527;28;20721;-84
2022/09/01 00:49:19;;;;;;;2.30;0.70;;;;;;;;;;5034820;28;20182;-86
2022/09/01 00:51:50;;;;;;;0.80;0.80;;;;;;;;;;5035341;28;20225;-85
2022/09/01 00:54:22;;;;;;;1.67;0.80;;;;;;;;;;5035085;28;20654;-85
2022/09/01 00:56:50;;;;;;;0.85;0.85;;;;;;;;;;5035096;28;20314;-86
2022/09/01 00:59:20;;;;;;;0.90;0.90;;;;;;;;;;5034909;28;20285;-86
2022/09/01 01:01:49;;;;;;;0.90;0.90;;;;;;;;;;5035533;28;20269;-85
2022/09/01 01:04:17;;;;;;;2.85;0.90;;;;;;;;;;5034464;28;20313;-84
2022/09/01 01:06:48;;;;;;;1.00;1.00;;;;;;;;;;5035151;28;20322;-85
2022/09/01 01:09:17;;;;;;;0.98;0.90;;;;;;;;;;5035224;28;20183;-85
2022/09/01 01:11:46;;;;;;;0.90;0.90;;;;;;;;;;5035111;28;20209;-86
2022/09/01 01:14:16;;;;;;;0.40;0.40;;;;;;;;;;5034822;28;20209;-86
2022/09/01 01:16:47;;;;;;;1.35;0.90;;;;;;;;;;5035012;28;20254;-84
2022/09/01 01:24:55;;;;;;;0.70;0.70;;;;;;;;;;5034608;28;20607;-86
2022/09/01 01:27:23;;;;;;;0.80;0.80;;;;;;;;;;5034764;28;20194;-86
2022/09/01 01:29:51;;;;;;;1.10;0.93;;;;;;;;;;5034541;28;20238;-86
2022/09/01 01:32:19;;;;;;;0.98;0.95;;;;;;;;;;5034600;28;20206;-86
2022/09/01 01:34:47;;;;;;;0.90;0.90;;;;;;;;;;5034185;28;20293;-86
2022/09/01 01:37:15;;;;;;;0.77;0.77;;;;;;;;;;5034118;28;20770;-84
2022/09/01 01:39:43;;;;;;;1.25;0.90;;;;;;;;;;5034701;28;20238;-84
2022/09/01 01:42:12;;;;;;;0.88;0.88;;;;;;;;;;5034979;28;20198;-85
2022/09/01 01:44:41;;;;;;;0.85;0.85;;;;;;;;;;5034017;28;20680;-83
2022/09/01 01:47:12;;;;;;;0.88;0.82;;;;;;;;;;5034773;28;20233;-83
2022/09/01 01:49:42;;;;;;;1.38;0.80;;;;;;;;;;5034738;28;20225;-84
2022/09/01 01:52:15;;;;;;;0.65;0.65;;;;;;;;;;5034490;28;20186;-84
2022/09/01 01:54:44;;;;;;;1.10;0.80;;;;;;;;;;5034680;28;20545;-83
2022/09/01 01:57:16;;;;;;;0.90;0.90;;;;;;;;;;5034324;28;20691;-83
2022/09/01 01:59:44;;;;;;;3.40;1.48;;;;;;;;;;5034561;28;20187;-84
2022/09/01 02:02:12;;;;;;;1.73;0.90;;;;;;;;;;5034062;28;20233;-84
2022/09/01 02:04:41;;;;;;;0.88;0.88;;;;;;;;;;5033586;28;20264;-84
2022/09/01 02:07:11;;;;;;;1.02;1.02;;;;;;;;;;5034094;28;20225;-85
2022/09/01 02:09:42;;;;;;;0.90;0.90;;;;;;;;;;5034265;28;20213;-84
2022/09/01 02:12:10;;;;;;;1.40;0.88;;;;;;;;;;5034420;28;20190;-84
2022/09/01 02:14:39;;;;;;;1.08;0.90;;;;;;;;;;5034327;28;20237;-83
2022/09/01 02:17:07;;;;;;;0.82;0.82;;;;;;;;;;5037780;28;20257;-84
2022/09/01 02:19:37;;;;;;;3.45;0.60;;;;;;;;;;5038453;28;20285;-84
2022/09/01 02:22:05;;;;;;;0.90;0.90;;;;;;;;;;5038397;28;20618;-84
2022/09/01 02:24:33;;;;;;;0.82;0.77;;;;;;;;;;5038311;28;20926;-83
2022/09/01 02:27:01;;;;;;;0.88;0.88;;;;;;;;;;5038291;28;20298;-84
2022/09/01 02:29:29;;;;;;;1.70;0.80;;;;;;;;;;5038389;28;20232;-85
2022/09/01 02:31:58;;;;;;;3.97;2.05;;;;;;;;;;5038444;28;20210;-85
2022/09/01 02:34:27;;;;;;;0.90;0.90;;;;;;;;;;5038032;28;20262;-84
2022/09/01 02:36:58;;;;;;;0.77;0.77;;;;;;;;;;5038296;28;20294;-85
2022/09/01 02:39:32;;;;;;;0.75;0.75;;;;;;;;;;5038343;28;20277;-84
2022/09/01 02:42:00;;;;;;;2.63;0.98;;;;;;;;;;5038401;28;20197;-83
2022/09/01 02:44:29;;;;;;;0.82;0.82;;;;;;;;;;5038058;28;20229;-83
2022/09/01 02:47:00;;;;;;;0.80;0.80;;;;;;;;;;5038369;28;20320;-83
2022/09/01 02:49:28;;;;;;;1.88;0.80;;;;;;;;;;5038073;28;20194;-85
2022/09/01 02:52:00;;;;;;;1.15;0.73;;;;;;;;;;5038208;28;20203;-85
2022/09/01 02:54:28;;;;;;;0.75;0.75;;;;;;;;;;5038048;28;20616;-85
2022/09/01 02:56:56;;;;;;;1.90;0.90;;;;;;;;;;5037330;28;20218;-86
2022/09/01 02:59:27;;;;;;;1.10;0.80;;;;;;;;;;5037845;28;20289;-86
2022/09/01 03:01:57;;;;;;;0.80;0.80;;;;;;;;;;5037957;28;20648;-85
2022/09/01 03:04:25;;;;;;;0.80;0.80;;;;;;;;;;5037321;28;20222;-85
2022/09/01 03:06:53;;;;;;;0.82;0.82;;;;;;;;;;5037110;28;20214;-85
2022/09/01 03:09:21;;;;;;;0.80;0.80;;;;;;;;;;5037034;28;20206;-84
2022/09/01 03:11:51;;;;;;;0.60;0.60;;;;;;;;;;5037762;28;20720;-83
2022/09/01 03:14:20;;;;;;;0.80;0.80;;;;;;;;;;5037577;28;20639;-85
2022/09/01 03:16:48;;;;;;;0.80;0.80;;;;;;;;;;5037309;28;20310;-85
2022/09/01 03:19:17;;;;;;;0.98;0.85;;;;;;;;;;5037491;28;20206;-86
2022/09/01 03:21:47;;;;;;;0.80;0.80;;;;;;;;;;5037321;28;20212;-84
2022/09/01 03:24:18;;;;;;;1.35;0.95;;;;;;;;;;5038122;28;20223;-84
2022/09/01 03:26:48;;;;;;;0.85;0.85;;;;;;;;;;5037338;28;20305;-83
2022/09/01 03:29:16;;;;;;;0.68;0.68;;;;;;;;;;5037609;28;20648;-84
2022/09/01 03:31:44;;;;;;;1.10;1.00;;;;;;;;;;5037597;28;20281;-83
2022/09/01 03:34:12;;;;;;;0.85;0.85;;;;;;;;;;5038091;28;20293;-84
2022/09/01 03:36:48;;;;;;;0.80;0.80;;;;;;;;;;5036822;28;20309;-85
2022/09/01 03:39:17;;;;;;;0.70;0.70;;;;;;;;;;5037214;28;20186;-83
2022/09/01 03:41:45;;;;;;;0.80;0.80;;;;;;;;;;5037279;28;20217;-83
2022/09/01 03:44:15;;;;;;;0.90;0.90;;;;;;;;;;5037015;28;20703;-84
2022/09/01 03:46:43;;;;;;;1.02;0.90;;;;;;;;;;5037547;28;20214;-84
2022/09/01 03:49:13;;;;;;;0.75;0.75;;;;;;;;;;5037664;28;20202;-84
2022/09/01 03:51:43;;;;;;;2.13;1.25;;;;;;;;;;5037099;28;20218;-84
2022/09/01 03:54:12;;;;;;;0.82;0.80;;;;;;;;;;5036993;28;20202;-84
2022/09/01 03:56:41;;;;;;;0.70;0.70;;;;;;;;;;5036755;28;20222;-83
2022/09/01 03:59:15;;;;;;;0.52;0.52;;;;;;;;;;5037420;28;20202;-85
2022/09/01 04:01:44;;;;;;;0.85;0.85;;;;;;;;;;5037134;28;20190;-83
2022/09/01 04:04:13;;;;;;;1.00;1.00;;;;;;;;;;5036681;28;20293;-82
2022/09/01 04:06:43;;;;;;;0.70;0.70;;;;;;;;;;5036366;28;20241;-84
2022/09/01 04:09:11;;;;;;;0.70;0.70;;;;;;;;;;5036526;28;20285;-84
2022/09/01 04:11:39;;;;;;;0.88;0.85;;;;;;;;;;5035873;28;20305;-85
2022/09/01 04:14:10;;;;;;;0.90;0.90;;;;;;;;;;5036754;28;20667;-84
2022/09/01 04:19:25;;;;;;;1.00;0.90;;;;;;;;;;5037146;28;20206;-83
2022/09/01 04:21:56;;;;;;;0.90;0.90;;;;;;;;;;5037411;28;20201;-84
2022/09/01 04:24:26;;;;;;;1.50;1.20;;;;;;;;;;5036117;28;20229;-84
2022/09/01 04:26:57;;;;;;;0.90;0.90;;;;;;;;;;5036274;28;20222;-85
2022/09/01 04:29:27;;;;;;;0.80;0.80;;;;;;;;;;5037206;28;20191;-84
2022/09/01 04:31:55;;;;;;;0.70;0.70;;;;;;;;;;5037183;28;20605;-85
2022/09/01 04:34:25;;;;;;;1.00;0.90;;;;;;;;;;5037085;28;20205;-84
2022/09/01 04:36:54;;;;;;;2.08;1.00;;;;;;;;;;5036945;28;20218;-84
2022/09/01 04:39:22;;;;;;;0.70;0.70;;;;;;;;;;5036267;28;20206;-83
2022/09/01 04:41:50;;;;;;;0.68;0.68;;;;;;;;;;5036857;28;20742;-85
2022/09/01 04:44:18;;;;;;;1.48;0.80;;;;;;;;;;5036988;28;20241;-84
2022/09/01 04:46:49;;;;;;;0.85;0.85;;;;;;;;;;5036270;28;20641;-85
2022/09/01 04:49:21;;;;;;;1.00;1.00;;;;;;;;;;5036493;28;20252;-85
2022/09/01 04:51:51;;;;;;;0.90;0.90;;;;;;;;;;5036172;28;20603;-85
2022/09/01 04:54:20;;;;;;;0.80;0.80;;;;;;;;;;5036599;28;20226;-85
2022/09/01 04:56:51;;;;;;;0.98;0.98;;;;;;;;;;5035970;28;20253;-85
2022/09/01 04:59:22;;;;;;;1.13;1.08;;;;;;;;;;5036433;28;20213;-85
2022/09/01 05:01:49;;;;;;;0.93;0.93;;;;;;;;;;5035746;28;20269;-84
2022/09/01 05:04:21;;;;;;;0.70;0.70;;;;;;;;;;5035838;28;20290;-85
2022/09/01 05:06:55;;;;;;;1.65;0.90;;;;;;;;;;5035861;28;20222;-84
2022/09/01 05:09:24;;;;;;;1.00;1.00;;;;;;;;;;5036194;28;20206;-85
2022/09/01 05:11:52;;;;;;;1.42;0.90;;;;;;;;;;5036005;28;20183;-85
2022/09/01 05:14:21;;;;;;;1.00;1.00;;;;;;;;;;5035850;28;20256;-84
2022/09/01 05:16:50;;;;;;;1.80;1.05;;;;;;;;;;5035660;28;20618;-84
2022/09/01 05:19:19;;;;;;;0.77;0.73;;;;;;;;;;5035813;28;20884;-84
2022/09/01 05:21:49;;;;;;;0.80;0.80;;;;;;;;;;5035777;28;20241;-85
2022/09/01 05:24:21;;;;;;;0.88;0.88;;;;;;;;;;5034072;28;20202;-82
2022/09/01 05:26:51;;;;;;;0.70;0.70;;;;;;;;;;5034875;28;20222;-83
2022/09/01 05:29:19;;;;;;;0.63;0.63;;;;;;;;;;5041106;28;20208;-84
2022/09/01 05:31:51;;;;;;;1.90;1.00;;;;;;;;;;5055211;28;20233;-83
2022/09/01 05:34:25;;;;;;;1.40;1.00;;;;;;;;;;5055647;28;20301;-83
2022/09/01 05:36:53;;;;;;;0.98;0.90;;;;;;;;;;5055349;28;20630;-83
2022/09/01 05:39:21;;;;;;;0.90;0.90;;;;;;;;;;5036724;28;20270;-82
2022/09/01 05:41:52;;;;;;;0.50;0.50;;;;;;;;;;5035029;28;20625;-83
2022/09/01 05:44:21;;;;;;;1.02;1.00;;;;;;;;;;5035139;28;20198;-83
2022/09/01 05:46:52;;;;;;;0.80;0.80;;;;;;;;;;5034764;28;20233;-85
2022/09/01 05:49:19;;;;;;;1.58;1.00;;;;;;;;;;5035397;28;20221;-84
2022/09/01 05:51:50;;;;;;;1.75;0.77;;;;;;;;;;5036211;28;20289;-85
2022/09/01 05:54:26;;;;;;;0.90;0.90;;;;;;;;;;5036211;28;20186;-84
2022/09/01 05:56:57;;;;;;;1.27;1.02;;;;;;;;;;5035597;28;20218;-83
2022/09/01 05:59:26;;;;;;;1.42;1.10;;;;;;;;;;5034958;28;20249;-83
2022/09/01 06:01:54;;;;;;;1.00;1.00;;;;;;;;;;5036888;28;20213;-83
2022/09/01 06:04:23;;;;;;;1.10;1.00;;;;;;;;;;5037725;28;20198;-84
2022/09/01 06:06:52;;;;;;;1.15;1.10;;;;;;;;;;5035548;28;20320;-82
2022/09/01 06:09:22;;;;;;;1.00;1.00;;;;;;;;;;5036843;28;20247;-83
2022/09/01 06:11:50;;;;;;;0.60;0.60;;;;;;;;;;5045930;28;20181;-83
2022/09/01 06:14:19;;;;;;;0.75;0.75;;;;;;;;;;5034882;28;20210;-83
2022/09/01 06:16:47;;;;;;;0.63;0.63;;;;;;;;;;5033769;28;20310;-84
2022/09/01 06:19:14;;;;;;;1.58;0.70;;;;;;;;;;5033303;28;20195;-84
2022/09/01 06:21:42;;;;;;;0.90;0.90;;;;;;;;;;5051747;28;20710;-83
2022/09/01 06:24:10;;;;;;;0.80;0.80;;;;;;;;;;5055341;28;20689;-84
2022/09/01 06:26:39;;;;;;;0.95;0.80;;;;;;;;;;5054058;28;20312;-83
2022/09/01 06:29:14;;;;;;;1.83;1.00;;;;;;;;;;5054817;28;20217;-83
2022/09/01 06:31:50;;;;;;;1.75;0.98;;;;;;;;;;5056488;28;20205;-85
2022/09/01 06:34:18;;;;;;;1.40;1.05;;;;;;;;;;5057359;28;20182;-84
2022/09/01 06:36:48;;;;;;;0.70;0.70;;;;;;;;;;5056482;28;20268;-83
2022/09/01 06:39:19;;;;;;;0.85;0.80;;;;;;;;;;5043030;28;20684;-84
2022/09/01 06:41:51;;;;;;;1.80;0.80;;;;;;;;;;5048887;28;20220;-84
2022/09/01 06:44:21;;;;;;;1.20;1.10;;;;;;;;;;5056740;28;20276;-83
2022/09/01 06:46:50;;;;;;;0.75;0.75;;;;;;;;;;5054960;28;20257;-83
2022/09/01 06:49:18;;;;;;;0.70;0.70;;;;;;;;;;5055547;28;20210;-84
2022/09/01 06:51:50;;;;;;;1.00;0.90;;;;;;;;;;5055709;28;20197;-85
2022/09/01 06:54:18;;;;;;;1.23;1.08;;;;;;;;;;5055977;28;20198;-85
2022/09/01 06:56:46;;;;;;;0.80;0.80;;;;;;;;;;5055059;28;20221;-85
2022/09/01 06:59:14;;;;;;;1.20;1.10;;;;;;;;;;5054931;28;20209;-84
2022/09/01 07:01:42;;;;;;;1.35;1.02;;;;;;;;;;5056098;28;20206;-84
2022/09/01 07:04:11;;;;;;;2.33;1.35;;;;;;;;;;5058645;28;20237;-84
2022/09/01 07:06:40;;;;;;;1.05;0.98;;;;;;;;;;5058148;28;20316;-85
2022/09/01 07:09:08;;;;;;;1.05;1.05;;;;;;;;;;5043059;28;20293;-85
2022/09/01 07:11:36;;;;;;;1.00;1.00;;;;;;;;;;5038319;28;20671;-83
2022/09/01 07:14:06;;;;;;;0.90;0.90;;;;;;;;;;5038622;28;20226;-85
2022/09/01 07:16:39;;;;;;;1.20;1.00;;;;;;;;;;5038128;28;20665;-84
2022/09/01 07:19:13;;;;;;;1.20;1.10;;;;;;;;;;5053872;28;20190;-84
2022/09/01 07:21:44;;;;;;;2.20;0.90;;;;;;;;;;5058001;28;20215;-84
2022/09/01 07:24:17;;;;;;;1.40;1.13;;;;;;;;;;5058124;28;20292;-84
2022/09/01 07:26:48;;;;;;;0.98;0.98;;;;;;;;;;5057959;28;20720;-84
2022/09/01 07:29:18;;;;;;;1.30;0.82;;;;;;;;;;5058031;28;20623;-85
2022/09/01 07:31:46;;;;;;;1.25;1.15;;;;;;;;;;5058174;28;20201;-84
2022/09/01 07:34:15;;;;;;;0.73;0.70;;;;;;;;;;5058107;28;20648;-84
2022/09/01 07:36:45;;;;;;;1.02;0.98;;;;;;;;;;5057977;28;20221;-83
2022/09/01 07:39:13;;;;;;;1.40;1.30;;;;;;;;;;5052458;28;20276;-84
2022/09/01 07:41:42;;;;;;;0.70;0.70;;;;;;;;;;5037501;28;20215;-83
2022/09/01 07:44:12;;;;;;;1.00;1.00;;;;;;;;;;5036873;28;20567;-84
2022/09/01 07:46:41;;;;;;;0.95;0.95;;;;;;;;;;5038333;28;20705;-84
2022/09/01 07:49:10;;;;;;;1.08;1.00;;;;;;;;;;5038475;28;20548;-83
2022/09/01 07:51:37;;;;;;;1.17;0.93;;;;;;;;;;5038363;28;20209;-83
2022/09/01 07:54:07;;;;;;;1.25;1.00;;;;;;;;;;5038815;28;20226;-84
2022/09/01 07:56:35;;;;;;;2.00;1.00;;;;;;;;;;5039043;28;20290;-83
2022/09/01 07:59:03;;;;;;;0.80;0.80;;;;;;;;;;5038675;28;20202;-84
2022/09/01 08:01:30;;;;;;;0.75;0.75;;;;;;;;;;5037265;28;20266;-83
2022/09/01 08:04:00;;;;;;;0.82;0.70;;;;;;;;;;5037624;28;20809;-83
2022/09/01 08:06:30;;;;;;;1.00;0.98;;;;;;;;;;5038156;28;20233;-82
2022/09/01 08:08:59;;;;;;;0.70;0.70;;;;;;;;;;5037020;28;20257;-83
2022/09/01 08:11:31;;;;;;;0.80;0.80;;;;;;;;;;5037378;28;20214;-83
2022/09/01 08:14:00;;;;;;;1.13;1.00;;;;;;;;;;5037554;28;20241;-84
2022/09/01 08:16:30;;;;;;;0.80;0.80;;;;;;;;;;5036470;28;20718;-83
2022/09/01 08:18:58;;;;;;;1.13;1.00;;;;;;;;;;5037062;28;20282;-83
2022/09/01 08:21:26;;;;;;;0.95;0.80;;;;;;;;;;5037310;28;20266;-84
2022/09/01 08:23:55;;;;;;;1.55;1.00;;;;;;;;;;5037690;28;20301;-84
2022/09/01 08:26:26;;;;;;;1.02;1.02;;;;;;;;;;5036183;28;20719;-83
2022/09/01 08:28:54;;;;;;;1.13;0.80;;;;;;;;;;5036511;28;20238;-83
2022/09/01 08:31:24;;;;;;;1.42;1.33;;;;;;;;;;5037532;28;20776;-84
2022/09/01 08:33:52;;;;;;;1.05;0.80;;;;;;;;;;5036672;28;20230;-85
2022/09/01 08:36:20;;;;;;;1.02;0.93;;;;;;;;;;5036859;28;20254;-84
2022/09/01 08:38:48;;;;;;;0.85;0.85;;;;;;;;;;5024571;28;20294;-85
2022/09/01 08:41:23;;;;;;;0.70;0.70;;;;;;;;;;5036031;28;20667;-84
2022/09/01 08:44:02;;;;;;;0.90;0.90;;;;;;;;;;5035460;28;20198;-84
2022/09/01 08:46:34;;;;;;;0.80;0.80;;;;;;;;;;5035424;28;20313;-85
2022/09/01 08:49:08;;;;;;;0.68;0.68;;;;;;;;;;5034936;28;20222;-84
2022/09/01 08:51:38;;;;;;;1.33;0.88;;;;;;;;;;5035311;28;20214;-85
2022/09/01 08:54:14;;;;;;;1.10;1.00;;;;;;;;;;5035507;28;20269;-85
2022/09/01 08:56:42;;;;;;;0.70;0.57;;;;;;;;;;5038277;28;20261;-85
2022/09/01 08:59:12;;;;;;;0.68;0.68;;;;;;;;;;5039038;28;20344;-85
2022/09/01 09:01:46;;;;;;;1.73;0.90;;;;;;;;;;5037985;28;20557;-85
2022/09/01 09:04:28;;;;;;;0.70;0.70;;;;;;;;;;5035544;28;20217;-85
2022/09/01 09:07:05;;;;;;;0.93;0.93;;;;;;;;;;5035035;28;20290;-86
2022/09/01 09:09:40;;;;;;;0.82;0.80;;;;;;;;;;5036050;28;20261;-84
2022/09/01 09:12:40;;;;;;;1.02;0.75;;;;;;;;;;5035757;28;20205;-86
2022/09/01 09:15:20;;;;;;;0.75;0.75;;;;;;;;;;5035593;28;20203;-84
2022/09/01 09:17:58;;;;;;;0.70;0.70;;;;;;;;;;5036110;28;20183;-84
2022/09/01 09:20:26;;;;;;;1.08;1.00;;;;;;;;;;5035981;28;20299;-83
2022/09/01 09:22:55;;;;;;;1.40;1.27;;;;;;;;;;5035852;28;20210;-83
2022/09/01 09:25:24;;;;;;;0.80;0.80;;;;;;;;;;5036657;28;20782;-83
2022/09/01 09:27:52;;;;;;;0.73;0.73;;;;;;;;;;5035174;28;20555;-84
2022/09/01 09:30:25;;;;;;;1.13;1.02;;;;;;;;;;5035919;28;20667;-83
2022/09/01 09:32:55;;;;;;;0.70;0.70;;;;;;;;;;5036116;28;20256;-84
2022/09/01 09:35:32;;;;;;;0.80;0.80;;;;;;;;;;5036636;28;20229;-84
2022/09/01 09:38:21;;;;;;;0.70;0.70;;;;;;;;;;5035545;28;20204;-84
2022/09/01 09:41:15;;;;;;;0.85;0.80;;;;;;;;;;5035983;28;20711;-83
2022/09/01 09:43:47;;;;;;;2.22;0.90;;;;;;;;;;5033856;28;20202;-83
2022/09/01 09:46:36;;;;;;;1.00;1.00;;;;;;;;;;5035008;28;20245;-82
2022/09/01 09:49:13;;;;;;;2.03;1.00;;;;;;;;;;5034849;28;20313;-83
2022/09/01 09:51:47;;;;;;;0.70;0.70;;;;;;;;;;5035884;28;20297;-83
2022/09/01 09:54:21;;;;;;;1.30;1.20;;;;;;;;;;5034576;28;20202;-83
2022/09/01 09:57:02;;;;;;;1.48;1.02;;;;;;;;;;5034722;28;20319;-82
2022/09/01 09:59:32;;;;;;;1.25;1.15;;;;;;;;;;5034772;28;20654;-83
2022/09/01 10:02:14;;;;;;;1.25;1.13;;;;;;;;;;5035209;28;20702;-83
2022/09/01 10:04:42;;;;;;;0.95;0.95;;;;;;;;;;5035364;28;20289;-83
2022/09/01 10:07:30;;;;;;;0.98;0.98;;;;;;;;;;5035084;28;20257;-83
2022/09/01 10:10:00;;;;;;;1.40;1.20;;;;;;;;;;5034305;28;20691;-84
2022/09/01 10:12:29;;;;;;;1.05;1.05;;;;;;;;;;5034659;28;20293;-83
2022/09/01 10:15:01;;;;;;;1.23;1.13;;;;;;;;;;5034591;28;20282;-83
2022/09/01 10:17:34;;;;;;;0.90;0.73;;;;;;;;;;5034230;28;20638;-82
2022/09/01 10:20:07;;;;;;;1.83;0.82;;;;;;;;;;5034364;28;20538;-83
2022/09/01 10:22:37;;;;;;;1.20;1.10;;;;;;;;;;5034562;28;20730;-84
2022/09/01 10:25:06;;;;;;;1.35;1.25;;;;;;;;;;5034155;28;20289;-83
2022/09/01 10:27:38;;;;;;;1.00;1.00;;;;;;;;;;5034310;28;20245;-83
2022/09/01 10:30:12;;;;;;;1.40;1.08;;;;;;;;;;5033982;28;20293;-83
2022/09/01 10:32:45;;;;;;;1.35;1.10;;;;;;;;;;5035064;28;20186;-84
2022/09/01 10:35:19;;;;;;;1.33;1.23;;;;;;;;;;5033975;28;20222;-81
2022/09/01 10:37:47;;;;;;;0.90;0.90;;;;;;;;;;5035336;28;20197;-83
2022/09/01 10:40:34;;;;;;;1.10;1.00;;;;;;;;;;5036080;28;20289;-80
2022/09/01 10:43:30;;;;;;;1.17;1.08;;;;;;;;;;5035908;28;20190;-81
2022/09/01 10:45:58;;;;;;;1.63;0.90;;;;;;;;;;5035940;28;20309;-82
2022/09/01 10:48:34;;;;;;;1.02;0.98;;;;;;;;;;5036349;28;20202;-80
2022/09/01 10:51:44;;;;;;;1.00;1.00;;;;;;;;;;5036358;28;20186;-82
2022/09/01 10:54:54;;;;;;;0.93;0.93;;;;;;;;;;5036672;28;20202;-80
2022/09/01 10:57:41;;;;;;;1.10;1.10;;;;;;;;;;5035664;28;20277;-80
2022/09/01 11:00:48;;;;;;;0.90;0.90;;;;;;;;;;5035831;28;20644;-81
2022/09/01 11:03:50;;;;;;;0.90;0.90;;;;;;;;;;5035969;28;20646;-80
2022/09/01 11:06:57;;;;;;;1.55;1.45;;;;;;;;;;5035538;28;20280;-80
2022/09/01 11:09:29;;;;;;;1.45;1.23;;;;;;;;;;5035164;28;20230;-82
2022/09/01 11:12:47;;;;;;;1.67;1.15;;;;;;;;;;5036325;28;20623;-82
2022/09/01 11:15:38;;;;;;;1.08;1.08;;;;;;;;;;5036183;28;20244;-82
2022/09/01 11:18:11;;;;;;;1.15;1.10;;;;;;;;;;5035507;28;20198;-82
2022/09/01 11:20:43;;;;;;;0.80;0.80;;;;;;;;;;5035355;28;20310;-83
2022/09/01 11:23:20;;;;;;;1.00;1.00;;;;;;;;;;5035417;28;20187;-82
2022/09/01 11:25:49;;;;;;;1.10;1.00;;;;;;;;;;5035670;28;20850;-81
2022/09/01 11:28:41;;;;;;;0.98;0.98;;;;;;;;;;5035417;28;20208;-81
2022/09/01 11:31:31;;;;;;;0.70;0.70;;;;;;;;;;5035352;28;20201;-82
2022/09/01 11:34:15;;;;;;;1.10;0.95;;;;;;;;;;5034963;28;20278;-81
2022/09/01 11:37:02;;;;;;;0.90;0.90;;;;;;;;;;5035307;28;20226;-82
2022/09/01 11:39:42;;;;;;;1.23;1.23;;;;;;;;;;5034569;28;20281;-83
2022/09/01 11:42:18;;;;;;;2.05;1.05;;;;;;;;;;5035260;28;20240;-82
2022/09/01 11:44:52;;;;;;;1.02;1.02;;;;;;;;;;5035462;28;20186;-83
2022/09/01 11:47:25;;;;;;;0.95;0.95;;;;;;;;;;5034825;28;20233;-83
2022/09/01 11:49:57;;;;;;;0.85;0.85;;;;;;;;;;5035209;28;20721;-82
2022/09/01 11:52:28;;;;;;;1.02;1.02;;;;;;;;;;5034679;28;20293;-83
2022/09/01 11:54:57;;;;;;;1.10;1.10;;;;;;;;;;5035222;28;20691;-81
2022/09/01 11:57:29;;;;;;;1.00;1.00;;;;;;;;;;5034528;28;20244;-82
2022/09/01 11:59:59;;;;;;;2.00;1.02;;;;;;;;;;5034808;28;20269;-81
2022/09/01 12:02:30;;;;;;;1.23;1.13;;;;;;;;;;5033942;28;20297;-81
2022/09/01 12:04:58;;;;;;;1.13;1.08;;;;;;;;;;5034694;28;20233;-82
2022/09/01 12:07:38;;;;;;;1.10;1.10;;;;;;;;;;5034936;28;20723;-82
2022/09/01 12:10:17;;;;;;;2.47;1.13;;;;;;;;;;5034636;28;20301;-82
2022/09/01 12:12:46;;;;;;;1.10;1.00;;;;;;;;;;5034868;28;20270;-83
2022/09/01 12:15:20;;;;;;;0.98;0.95;;;;;;;;;;5034271;28;20202;-83
2022/09/01 12:17:48;;;;;;;1.58;1.10;;;;;;;;;;5034325;28;20546;-80
2022/09/01 12:20:29;;;;;;;0.73;0.73;;;;;;;;;;5034283;28;20233;-82
2022/09/01 12:23:01;;;;;;;1.13;1.00;;;;;;;;;;5034103;28;20197;-84
2022/09/01 12:25:31;;;;;;;1.50;1.40;;;;;;;;;;5034221;28;20574;-81
2022/09/01 12:28:00;;;;;;;2.08;0.95;;;;;;;;;;5034092;28;20237;-82
2022/09/01 12:30:28;;;;;;;1.30;1.20;;;;;;;;;;5034390;28;20722;-81
2022/09/01 12:32:57;;;;;;;1.10;1.10;;;;;;;;;;5034537;28;20719;-82
2022/09/01 12:35:27;;;;;;;1.83;1.73;;;;;;;;;;5034591;28;20244;-84
2022/09/01 12:38:24;;;;;;;1.30;1.20;;;;;;;;;;5034127;28;20296;-81
2022/09/01 12:40:54;;;;;;;1.30;1.20;;;;;;;;;;5034254;28;20256;-81
2022/09/01 12:43:34;;;;;;;1.02;1.02;;;;;;;;;;5033869;28;20285;-82
2022/09/01 12:46:03;;;;;;;1.23;1.15;;;;;;;;;;5034245;28;20305;-83
2022/09/01 12:48:33;;;;;;;1.30;1.20;;;;;;;;;;5033562;28;20233;-82
2022/09/01 12:51:03;;;;;;;1.60;1.08;;;;;;;;;;5033979;28;20264;-83
2022/09/01 12:53:34;;;;;;;1.00;1.00;;;;;;;;;;5034421;28;20225;-80
2022/09/01 12:56:18;;;;;;;1.15;1.05;;;;;;;;;;5033662;28;20276;-82
2022/09/01 12:58:52;;;;;;;1.00;0.90;;;;;;;;;;5033326;28;20278;-80
2022/09/01 13:01:31;;;;;;;0.80;0.80;;;;;;;;;;5034214;28;20189;-81
2022/09/01 13:04:28;;;;;;;1.27;1.20;;;;;;;;;;5033888;28;20187;-81
2022/09/01 13:07:02;;;;;;;1.42;1.17;;;;;;;;;;5024217;28;20766;-81
2022/09/01 13:09:31;;;;;;;0.98;0.98;;;;;;;;;;5033603;28;20186;-80
2022/09/01 13:12:19;;;;;;;1.23;1.17;;;;;;;;;;5032890;28;20289;-81
2022/09/01 13:14:47;;;;;;;1.00;0.82;;;;;;;;;;5033327;28;20273;-80
2022/09/01 13:17:15;;;;;;;1.40;1.30;;;;;;;;;;5033381;28;20257;-80
2022/09/01 13:19:42;;;;;;;4.00;1.25;;;;;;;;;;5033305;28;20202;-81
2022/09/01 13:22:10;;;;;;;1.00;1.00;;;;;;;;;;5033699;28;20202;-81
2022/09/01 13:24:39;;;;;;;0.70;0.70;;;;;;;;;;5033501;28;20632;-82
2022/09/01 13:27:07;;;;;;;0.90;0.90;;;;;;;;;;5032866;28;20229;-82
2022/09/01 13:29:34;;;;;;;1.23;1.00;;;;;;;;;;5033074;28;20213;-81
2022/09/01 13:32:02;;;;;;;1.30;1.20;;;;;;;;;;5032663;28;20742;-80
2022/09/01 13:34:30;;;;;;;1.52;1.00;;;;;;;;;;5033845;28;20206;-81
2022/09/01 13:36:57;;;;;;;0.90;0.90;;;;;;;;;;5033154;28;20225;-80
2022/09/01 13:39:25;;;;;;;1.20;1.10;;;;;;;;;;5033858;28;20202;-82
2022/09/01 13:41:54;;;;;;;1.73;1.00;;;;;;;;;;5032839;28;20200;-81
2022/09/01 13:44:21;;;;;;;1.17;0.90;;;;;;;;;;5033006;28;20293;-82
2022/09/01 13:46:49;;;;;;;0.90;0.90;;;;;;;;;;5032406;28;20256;-79
2022/09/01 13:49:17;;;;;;;4.55;1.23;;;;;;;;;;5032730;28;20210;-83
2022/09/01 13:51:44;;;;;;;1.10;1.00;;;;;;;;;;5032269;28;20742;-82
2022/09/01 13:54:12;;;;;;;0.95;0.95;;;;;;;;;;5031879;28;20305;-79
2022/09/01 13:56:39;;;;;;;0.88;0.88;;;;;;;;;;5032277;28;20309;-81
2022/09/01 13:59:08;;;;;;;0.80;0.73;;;;;;;;;;5032237;28;20220;-82
2022/09/01 14:01:36;;;;;;;0.80;0.75;;;;;;;;;;5032572;28;20293;-81
2022/09/01 14:04:04;;;;;;;0.93;0.80;;;;;;;;;;5032921;28;20634;-80
2022/09/01 14:06:32;;;;;;;1.13;1.10;;;;;;;;;;5033372;28;20241;-80
2022/09/01 14:09:00;;;;;;;2.28;1.33;;;;;;;;;;5032993;28;20210;-81
2022/09/01 14:11:28;;;;;;;1.05;0.98;;;;;;;;;;5032076;28;20235;-82
2022/09/01 14:13:55;;;;;;;1.02;0.90;;;;;;;;;;5032689;28;20251;-80
2022/09/01 14:16:24;;;;;;;0.75;0.75;;;;;;;;;;5032490;28;20313;-81
2022/09/01 14:18:52;;;;;;;0.68;0.68;;;;;;;;;;5033118;28;20282;-82
2022/09/01 14:21:20;;;;;;;0.90;0.90;;;;;;;;;;5033580;28;20211;-81
2022/09/01 14:23:47;;;;;;;0.95;0.95;;;;;;;;;;5032492;28;20289;-80
2022/09/01 14:26:16;;;;;;;0.88;0.85;;;;;;;;;;5031605;28;20313;-79
2022/09/01 14:28:47;;;;;;;1.25;0.95;;;;;;;;;;5031415;28;20294;-79
2022/09/01 14:31:17;;;;;;;1.70;0.80;;;;;;;;;;5032422;28;20210;-82
2022/09/01 14:33:47;;;;;;;0.77;0.77;;;;;;;;;;5032331;28;20269;-80
2022/09/01 14:36:20;;;;;;;1.25;0.70;;;;;;;;;;5032081;28;20340;-79
2022/09/01 14:38:49;;;;;;;1.60;0.60;;;;;;;;;;5032163;28;20285;-81
2022/09/01 14:41:20;;;;;;;1.02;0.90;;;;;;;;;;5032048;28;20567;-81
2022/09/01 14:43:48;;;;;;;0.60;0.60;;;;;;;;;;5032081;28;20183;-80
2022/09/01 14:46:18;;;;;;;1.10;0.95;;;;;;;;;;5031879;28;20768;-82
2022/09/01 14:48:49;;;;;;;0.70;0.70;;;;;;;;;;5031904;28;20285;-80
2022/09/01 14:51:24;;;;;;;1.08;0.88;;;;;;;;;;5031696;28;20289;-81
2022/09/01 14:53:52;;;;;;;1.90;1.13;;;;;;;;;;5031995;28;20183;-80
2022/09/01 14:56:20;;;;;;;1.02;1.02;;;;;;;;;;5031891;28;20333;-81
2022/09/01 14:58:48;;;;;;;1.52;1.30;;;;;;;;;;5031775;28;20290;-80
2022/09/01 15:01:19;;;;;;;1.10;1.00;;;;;;;;;;5032647;28;20587;-82
2022/09/01 15:03:48;;;;;;;1.20;1.10;;;;;;;;;;5032307;28;20233;-81
2022/09/01 15:06:18;;;;;;;0.80;0.80;;;;;;;;;;5031361;28;20305;-83
2022/09/01 15:08:47;;;;;;;0.70;0.70;;;;;;;;;;5032211;28;20672;-81
2022/09/01 15:11:20;;;;;;;0.85;0.68;;;;;;;;;;5032747;28;20814;-84
2022/09/01 15:13:51;;;;;;;0.50;0.50;;;;;;;;;;5032721;28;20551;-83
2022/09/01 15:16:22;;;;;;;0.85;0.85;;;;;;;;;;5032551;28;20637;-83
2022/09/01 15:18:51;;;;;;;0.60;0.60;;;;;;;;;;5032576;28;20715;-80